createdAt,value
2019-05-26T00:02:33.547Z,95945.23
2019-05-26T00:05:08.139Z,95943.59
2019-05-26T00:07:39.677Z,95944.55
2019-05-26T00:10:12.580Z,95946.50
2019-05-26T00:12:46.639Z,95941.00
2019-05-26T00:15:20.202Z,95940.03
2019-05-26T00:17:54.241Z,95949.09
2019-05-26T00:20:25.684Z,95950.38
2019-05-26T00:22:59.256Z,95947.59
2019-05-26T00:25:31.681Z,95938.86
2019-05-26T00:28:04.032Z,95941.78
2019-05-26T00:30:37.647Z,95932.58
2019-05-26T00:33:10.915Z,95935.70
2019-05-26T00:35:43.732Z,95940.11
2019-05-26T00:38:16.735Z,95941.03
2019-05-26T00:40:49.909Z,95939.61
2019-05-26T00:43:24.477Z,95941.34
2019-05-26T00:45:56.738Z,95935.83
2019-05-26T00:48:29.482Z,95939.55
2019-05-26T00:51:03.907Z,95939.58
2019-05-26T00:53:39.394Z,95941.34
2019-05-26T00:56:13.620Z,95936.91
2019-05-26T00:58:49.291Z,95942.10
2019-05-26T01:01:22.852Z,95937.75
2019-05-26T01:03:58.386Z,95937.63
2019-05-26T01:06:31.969Z,95933.91
2019-05-26T01:09:06.872Z,95932.46
2019-05-26T01:11:40.775Z,95932.46
2019-05-26T01:14:13.177Z,95931.30
2019-05-26T01:16:46.882Z,95931.48
2019-05-26T01:19:19.784Z,95931.80
2019-05-26T01:21:52.942Z,95931.27
2019-05-26T01:24:25.993Z,95935.48
2019-05-26T01:26:58.947Z,95940.30
2019-05-26T01:29:31.124Z,95940.30
2019-05-26T01:32:04.913Z,95931.11
2019-05-26T01:34:38.020Z,95938.37
2019-05-26T01:37:12.578Z,95939.86
2019-05-26T01:39:46.076Z,95943.30
2019-05-26T01:42:20.145Z,95939.94
2019-05-26T01:44:53.146Z,95939.66
2019-05-26T01:47:25.977Z,95944.39
2019-05-26T01:50:00.680Z,95944.08
2019-05-26T01:52:31.924Z,95941.97
2019-05-26T01:55:05.861Z,95945.41
2019-05-26T01:57:37.935Z,95944.91
2019-05-26T02:00:11.951Z,95950.69
2019-05-26T02:02:47.856Z,95950.22
2019-05-26T02:05:19.570Z,95952.49
2019-05-26T02:07:54.360Z,95948.49
2019-05-26T02:10:26.601Z,95951.11
2019-05-26T02:13:00.168Z,95955.65
2019-05-26T02:15:33.043Z,95950.48
2019-05-26T02:18:06.495Z,95951.70
2019-05-26T02:20:40.017Z,95952.72
2019-05-26T02:23:12.376Z,95956.88
2019-05-26T02:25:45.271Z,95958.63
2019-05-26T02:28:18.091Z,95954.76
2019-05-26T02:30:50.218Z,95961.02
2019-05-26T02:33:24.271Z,95963.92
2019-05-26T02:35:57.302Z,95971.52
2019-05-26T02:38:29.311Z,95971.28
2019-05-26T02:41:02.565Z,95967.70
2019-05-26T02:43:35.316Z,95966.54
2019-05-26T02:46:09.601Z,95972.41
2019-05-26T02:48:41.267Z,95975.10
2019-05-26T02:51:14.755Z,95971.94
2019-05-26T02:53:48.741Z,95972.52
2019-05-26T02:56:20.429Z,95977.47
2019-05-26T02:58:53.467Z,95970.19
2019-05-26T03:01:27.073Z,95971.42
2019-05-26T03:03:59.484Z,95975.44
2019-05-26T03:06:32.060Z,95974.83
2019-05-26T03:09:21.018Z,95985.05
2019-05-26T03:11:38.757Z,95977.67
2019-05-26T03:14:12.854Z,95982.21
2019-05-26T03:16:45.189Z,95983.88
2019-05-26T03:19:19.291Z,95988.00
2019-05-26T03:21:54.916Z,95987.31
2019-05-26T03:24:28.939Z,95989.70
2019-05-26T03:27:02.482Z,95991.30
2019-05-26T03:29:34.559Z,95992.89
2019-05-26T03:32:08.337Z,96002.78
2019-05-26T03:34:43.240Z,95993.75
2019-05-26T03:37:14.563Z,95997.84
2019-05-26T03:39:46.845Z,96001.73
2019-05-26T03:42:19.780Z,96007.13
2019-05-26T03:44:52.611Z,96000.79
2019-05-26T03:47:27.280Z,96003.22
2019-05-26T03:50:00.640Z,96003.88
2019-05-26T03:52:36.149Z,96012.91
2019-05-26T03:55:08.188Z,96012.93
2019-05-26T03:57:41.750Z,96016.03
2019-05-26T04:00:14.159Z,96005.95
2019-05-26T04:02:49.978Z,96013.47
2019-05-26T04:05:23.833Z,96016.64
2019-05-26T04:07:56.789Z,96019.27
2019-05-26T04:10:28.759Z,96017.00
2019-05-26T04:13:01.918Z,96021.07
2019-05-26T04:15:37.186Z,96021.69
2019-05-26T04:18:10.409Z,96018.97
2019-05-26T04:20:46.057Z,96023.66
2019-05-26T04:23:18.811Z,96022.67
2019-05-26T04:25:52.695Z,96017.30
2019-05-26T04:28:25.937Z,96024.27
2019-05-26T04:30:57.914Z,96023.42
2019-05-26T04:33:32.098Z,96027.16
2019-05-26T04:36:05.152Z,96029.63
2019-05-26T04:38:37.710Z,96037.43
2019-05-26T04:41:12.486Z,96033.36
2019-05-26T04:43:49.433Z,96029.69
2019-05-26T04:46:20.656Z,96031.52
2019-05-26T04:48:54.617Z,96030.27
2019-05-26T04:51:25.872Z,96034.69
2019-05-26T04:53:59.590Z,96037.39
2019-05-26T04:56:31.796Z,96036.83
2019-05-26T04:59:05.354Z,96034.31
2019-05-26T05:01:38.971Z,96037.12
2019-05-26T05:04:14.721Z,96033.81
2019-05-26T05:06:47.150Z,96027.06
2019-05-26T05:09:21.491Z,96034.87
2019-05-26T05:11:54.215Z,96036.34
2019-05-26T05:14:25.925Z,96032.27
2019-05-26T05:16:57.444Z,96035.80
2019-05-26T05:19:30.901Z,96035.65
2019-05-26T05:22:04.986Z,96036.44
2019-05-26T05:24:36.201Z,96035.39
2019-05-26T05:27:09.170Z,96041.22
2019-05-26T05:29:44.327Z,96035.42
2019-05-26T05:32:17.914Z,96035.27
2019-05-26T05:34:50.046Z,96032.84
2019-05-26T05:37:25.253Z,96039.63
2019-05-26T05:40:00.766Z,96042.52
2019-05-26T05:42:32.195Z,96046.55
2019-05-26T05:45:05.537Z,96051.35
2019-05-26T05:47:39.071Z,96053.44
2019-05-26T05:50:13.660Z,96047.09
2019-05-26T05:52:47.253Z,96049.72
2019-05-26T05:55:21.801Z,96048.27
2019-05-26T05:57:53.119Z,96053.95
2019-05-26T06:00:26.111Z,96050.81
2019-05-26T06:02:59.177Z,96048.00
2019-05-26T06:05:33.862Z,96055.00
2019-05-26T06:08:05.216Z,96049.36
2019-05-26T06:10:38.228Z,96054.03
2019-05-26T06:13:11.308Z,96050.62
2019-05-26T06:15:44.425Z,96052.06
2019-05-26T06:18:16.497Z,96048.23
2019-05-26T06:20:47.740Z,96049.72
2019-05-26T06:23:19.978Z,96044.12
2019-05-26T06:25:54.378Z,96042.86
2019-05-26T06:28:26.247Z,96046.00
2019-05-26T06:30:59.414Z,96048.78
2019-05-26T06:33:32.529Z,96054.38
2019-05-26T06:36:05.518Z,96046.90
2019-05-26T06:38:40.015Z,96048.41
2019-05-26T06:41:30.372Z,96051.03
2019-05-26T06:43:52.130Z,96047.19
2019-05-26T06:46:23.368Z,96050.08
2019-05-26T06:48:57.533Z,96053.58
2019-05-26T06:51:29.507Z,96051.73
2019-05-26T06:54:01.510Z,96043.39
2019-05-26T06:56:35.648Z,96049.34
2019-05-26T06:59:09.384Z,96050.67
2019-05-26T07:01:41.374Z,96047.23
2019-05-26T07:04:14.461Z,96041.83
2019-05-26T07:06:47.595Z,96046.89
2019-05-26T07:09:19.664Z,96045.63
2019-05-26T07:11:59.730Z,96040.73
2019-05-26T07:14:26.548Z,96043.19
2019-05-26T07:16:59.646Z,96049.17
2019-05-26T07:19:32.758Z,96041.47
2019-05-26T07:22:06.223Z,96050.38
2019-05-26T07:24:38.750Z,96050.67
2019-05-26T07:27:11.622Z,96051.30
2019-05-26T07:29:44.594Z,96053.22
2019-05-26T07:32:17.558Z,96057.30
2019-05-26T07:34:49.993Z,96058.46
2019-05-26T07:37:23.691Z,96064.62
2019-05-26T07:39:56.729Z,96060.41
2019-05-26T07:42:29.985Z,96062.84
2019-05-26T07:45:01.661Z,96065.43
2019-05-26T07:47:35.835Z,96068.86
2019-05-26T07:50:08.987Z,96067.79
2019-05-26T07:52:41.828Z,96077.45
2019-05-26T07:55:16.567Z,96071.61
2019-05-26T07:57:49.966Z,96075.39
2019-05-26T08:00:23.811Z,96072.25
2019-05-26T08:02:57.501Z,96074.08
2019-05-26T08:05:31.335Z,96069.09
2019-05-26T08:08:12.623Z,96065.21
2019-05-26T08:10:39.083Z,96060.80
2019-05-26T08:13:11.998Z,96062.41
2019-05-26T08:15:45.091Z,96062.10
2019-05-26T08:18:18.765Z,96056.61
2019-05-26T08:20:50.967Z,96051.08
2019-05-26T08:23:24.589Z,96054.64
2019-05-26T08:25:57.838Z,96061.75
2019-05-26T08:28:31.008Z,96066.41
2019-05-26T08:31:03.993Z,96065.41
2019-05-26T08:33:37.967Z,96064.08
2019-05-26T08:36:09.477Z,96066.03
2019-05-26T08:38:42.077Z,96058.06
2019-05-26T08:41:15.967Z,96065.03
2019-05-26T08:43:48.107Z,96060.91
2019-05-26T08:46:20.597Z,96055.67
2019-05-26T08:48:54.717Z,96059.43
2019-05-26T08:51:28.109Z,96066.10
2019-05-26T08:53:59.885Z,96055.88
2019-05-26T08:56:32.999Z,96055.97
2019-05-26T08:59:05.228Z,96051.48
2019-05-26T09:01:39.116Z,96050.48
2019-05-26T09:04:11.969Z,96057.61
2019-05-26T09:06:44.211Z,96050.63
2019-05-26T09:09:17.208Z,96055.30
2019-05-26T09:11:52.715Z,96050.77
2019-05-26T09:14:26.627Z,96045.91
2019-05-26T09:16:59.204Z,96049.48
2019-05-26T09:19:30.569Z,96045.81
2019-05-26T09:22:04.297Z,96045.11
2019-05-26T09:24:38.275Z,96051.11
2019-05-26T09:27:11.993Z,96042.34
2019-05-26T09:29:45.832Z,96047.97
2019-05-26T09:32:19.974Z,96041.84
2019-05-26T09:34:52.516Z,96043.66
2019-05-26T09:37:27.919Z,96037.30
2019-05-26T09:40:00.327Z,96041.02
2019-05-26T09:42:34.970Z,96041.29
2019-05-26T09:45:11.184Z,96043.07
2019-05-26T09:47:44.430Z,96036.75
2019-05-26T09:50:16.822Z,96033.41
2019-05-26T09:52:50.398Z,96035.94
2019-05-26T09:55:23.419Z,96035.47
2019-05-26T09:57:56.300Z,96036.47
2019-05-26T10:00:29.702Z,96034.06
2019-05-26T10:03:02.112Z,96031.16
2019-05-26T10:05:37.084Z,96028.87
2019-05-26T10:08:12.000Z,96026.34
2019-05-26T10:10:45.915Z,96016.47
2019-05-26T10:13:30.932Z,96015.93
2019-05-26T10:15:51.140Z,96018.20
2019-05-26T10:18:25.302Z,96016.53
2019-05-26T10:20:57.686Z,96019.34
2019-05-26T10:23:29.426Z,96011.36
2019-05-26T10:26:05.183Z,96013.44
2019-05-26T10:28:38.559Z,96014.12
2019-05-26T10:31:11.631Z,96016.94
2019-05-26T10:33:49.383Z,96005.84
2019-05-26T10:36:20.623Z,96006.38
2019-05-26T10:38:53.747Z,96005.45
2019-05-26T10:41:26.541Z,95998.83
2019-05-26T10:44:01.278Z,96007.19
2019-05-26T10:46:35.392Z,96002.06
2019-05-26T10:49:09.850Z,96004.77
2019-05-26T10:51:44.114Z,96001.81
2019-05-26T10:54:18.070Z,96003.66
2019-05-26T10:56:51.130Z,95992.84
2019-05-26T10:59:25.391Z,95991.59
2019-05-26T11:02:01.387Z,95994.44
2019-05-26T11:04:32.635Z,95986.91
2019-05-26T11:07:07.280Z,95980.38
2019-05-26T11:09:40.791Z,95985.21
2019-05-26T11:12:11.997Z,95975.08
2019-05-26T11:14:43.645Z,95979.42
2019-05-26T11:17:19.351Z,95969.08
2019-05-26T11:19:54.376Z,95964.36
2019-05-26T11:22:26.810Z,95971.38
2019-05-26T11:25:03.654Z,95962.73
2019-05-26T11:27:37.259Z,95960.55
2019-05-26T11:30:09.384Z,95959.38
2019-05-26T11:32:41.727Z,95955.39
2019-05-26T11:35:14.093Z,95945.52
2019-05-26T11:37:48.935Z,95953.61
2019-05-26T11:40:21.560Z,95950.88
2019-05-26T11:42:54.077Z,95953.13
2019-05-26T11:45:28.533Z,95952.46
2019-05-26T11:48:01.605Z,95947.98
2019-05-26T11:50:32.828Z,95944.67
2019-05-26T11:53:06.620Z,95940.16
2019-05-26T11:55:39.044Z,95946.23
2019-05-26T11:58:12.519Z,95932.66
2019-05-26T12:00:44.587Z,95929.53
2019-05-26T12:03:17.707Z,95926.30
2019-05-26T12:05:52.765Z,95918.39
2019-05-26T12:08:23.994Z,95915.06
2019-05-26T12:10:58.504Z,95917.56
2019-05-26T12:13:36.689Z,95912.77
2019-05-26T12:16:10.048Z,95912.05
2019-05-26T12:18:42.025Z,95902.38
2019-05-26T12:21:15.110Z,95899.11
2019-05-26T12:23:48.919Z,95896.08
2019-05-26T12:26:20.578Z,95893.58
2019-05-26T12:28:52.581Z,95892.77
2019-05-26T12:31:23.960Z,95880.89
2019-05-26T12:33:57.128Z,95878.19
2019-05-26T12:36:30.071Z,95879.09
2019-05-26T12:39:03.077Z,95870.16
2019-05-26T12:41:37.378Z,95866.22
2019-05-26T12:44:11.027Z,95871.55
2019-05-26T12:46:45.176Z,95873.39
2019-05-26T12:49:18.056Z,95869.05
2019-05-26T12:51:51.371Z,95864.00
2019-05-26T12:54:24.378Z,95862.59
2019-05-26T12:56:57.329Z,95863.28
2019-05-26T12:59:29.380Z,95857.86
2019-05-26T13:02:03.376Z,95857.86
2019-05-26T13:04:36.559Z,95858.01
2019-05-26T13:07:10.464Z,95854.29
2019-05-26T13:09:44.370Z,95844.82
2019-05-26T13:12:20.017Z,95855.24
2019-05-26T13:15:05.620Z,95842.90
2019-05-26T13:17:29.215Z,95846.86
2019-05-26T13:20:00.509Z,95838.63
2019-05-26T13:22:33.869Z,95825.37
2019-05-26T13:25:07.729Z,95822.30
2019-05-26T13:27:47.077Z,95827.81
2019-05-26T13:30:31.351Z,95824.22
2019-05-26T13:33:04.523Z,95821.03
2019-05-26T13:35:37.509Z,95823.95
2019-05-26T13:38:10.627Z,95823.72
2019-05-26T13:40:42.214Z,95815.70
2019-05-26T13:43:16.324Z,95817.77
2019-05-26T13:45:49.320Z,95821.59
2019-05-26T13:48:20.663Z,95814.88
2019-05-26T13:50:54.755Z,95820.27
2019-05-26T13:53:27.656Z,95814.32
2019-05-26T13:56:03.595Z,95811.43
2019-05-26T13:58:35.809Z,95806.70
2019-05-26T14:01:15.349Z,95807.40
2019-05-26T14:03:49.422Z,95806.36
2019-05-26T14:06:20.696Z,95801.96
2019-05-26T14:09:02.455Z,95803.52
2019-05-26T14:11:35.606Z,95798.56
2019-05-26T14:14:09.483Z,95802.00
2019-05-26T14:16:44.978Z,95800.41
2019-05-26T14:19:19.794Z,95806.79
2019-05-26T14:21:53.860Z,95808.44
2019-05-26T14:24:27.576Z,95805.70
2019-05-26T14:27:01.323Z,95807.36
2019-05-26T14:29:32.757Z,95812.83
2019-05-26T14:32:07.427Z,95803.49
2019-05-26T14:34:38.642Z,95810.26
2019-05-26T14:37:11.584Z,95803.31
2019-05-26T14:39:44.678Z,95808.66
2019-05-26T14:42:16.073Z,95800.54
2019-05-26T14:44:47.977Z,95806.26
2019-05-26T14:47:20.654Z,95812.72
2019-05-26T14:49:52.609Z,95811.35
2019-05-26T14:52:26.672Z,95817.23
2019-05-26T14:54:58.615Z,95807.15
2019-05-26T14:57:32.851Z,95810.38
2019-05-26T15:00:06.475Z,95814.39
2019-05-26T15:02:40.809Z,95813.09
2019-05-26T15:05:20.445Z,95815.66
2019-05-26T15:07:55.146Z,95813.67
2019-05-26T15:10:33.305Z,95814.36
2019-05-26T15:13:05.984Z,95816.61
2019-05-26T15:15:39.783Z,95806.38
2019-05-26T15:18:13.443Z,95808.38
2019-05-26T15:20:48.127Z,95810.72
2019-05-26T15:23:20.742Z,95810.30
2019-05-26T15:25:53.857Z,95805.73
2019-05-26T15:28:27.083Z,95803.57
2019-05-26T15:31:00.067Z,95802.48
2019-05-26T15:33:33.431Z,95800.92
2019-05-26T15:36:07.522Z,95794.27
2019-05-26T15:38:43.324Z,95798.94
2019-05-26T15:41:16.832Z,95802.50
2019-05-26T15:43:50.971Z,95799.55
2019-05-26T15:46:25.898Z,95796.22
2019-05-26T15:49:01.604Z,95795.08
2019-05-26T15:51:33.112Z,95806.00
2019-05-26T15:54:06.010Z,95804.25
2019-05-26T15:56:40.021Z,95803.51
2019-05-26T15:59:13.058Z,95800.82
2019-05-26T16:01:47.872Z,95799.27
2019-05-26T16:04:19.435Z,95799.23
2019-05-26T16:06:51.138Z,95797.20
2019-05-26T16:09:24.023Z,95803.23
2019-05-26T16:11:58.050Z,95795.28
2019-05-26T16:14:29.356Z,95798.92
2019-05-26T16:17:02.129Z,95791.59
2019-05-26T16:19:35.302Z,95792.06
2019-05-26T16:22:09.514Z,95782.51
2019-05-26T16:24:41.284Z,95778.97
2019-05-26T16:27:19.522Z,95771.39
2019-05-26T16:29:50.191Z,95785.13
2019-05-26T16:32:21.649Z,95773.35
2019-05-26T16:34:53.187Z,95772.83
2019-05-26T16:37:27.291Z,95768.52
2019-05-26T16:39:59.371Z,95775.86
2019-05-26T16:42:34.765Z,95776.73
2019-05-26T16:45:08.806Z,95774.60
2019-05-26T16:47:41.373Z,95771.79
2019-05-26T16:50:13.455Z,95770.09
2019-05-26T16:52:45.282Z,95769.95
2019-05-26T16:55:18.252Z,95768.53
2019-05-26T16:57:51.592Z,95765.89
2019-05-26T17:00:24.794Z,95765.74
2019-05-26T17:02:58.394Z,95765.31
2019-05-26T17:05:32.051Z,95769.97
2019-05-26T17:08:05.488Z,95767.33
2019-05-26T17:10:41.020Z,95770.94
2019-05-26T17:13:16.044Z,95771.47
2019-05-26T17:15:48.649Z,95772.95
2019-05-26T17:18:20.939Z,95777.41
2019-05-26T17:20:53.524Z,95784.00
2019-05-26T17:23:27.851Z,95773.09
2019-05-26T17:26:00.488Z,95773.45
2019-05-26T17:28:34.316Z,95778.19
2019-05-26T17:31:06.879Z,95780.41
2019-05-26T17:33:42.453Z,95781.05
2019-05-26T17:36:16.516Z,95789.39
2019-05-26T17:38:48.527Z,95788.78
2019-05-26T17:41:24.486Z,95788.50
2019-05-26T17:43:58.924Z,95791.65
2019-05-26T17:46:30.397Z,95784.09
2019-05-26T17:49:10.144Z,95787.02
2019-05-26T17:51:52.263Z,95785.87
2019-05-26T17:54:24.874Z,95778.44
2019-05-26T17:56:59.309Z,95790.28
2019-05-26T17:59:32.205Z,95785.06
2019-05-26T18:02:05.705Z,95786.98
2019-05-26T18:04:41.515Z,95784.94
2019-05-26T18:07:15.581Z,95786.59
2019-05-26T18:09:49.001Z,95788.20
2019-05-26T18:12:21.135Z,95791.31
2019-05-26T18:14:54.597Z,95785.48
2019-05-26T18:17:27.962Z,95790.72
2019-05-26T18:20:00.899Z,95787.97
2019-05-26T18:22:33.613Z,95787.80
2019-05-26T18:25:05.554Z,95786.37
2019-05-26T18:27:36.800Z,95782.83
2019-05-26T18:30:10.665Z,95778.80
2019-05-26T18:32:44.433Z,95785.29
2019-05-26T18:35:20.892Z,95784.72
2019-05-26T18:37:54.764Z,95789.05
2019-05-26T18:40:27.762Z,95788.11
2019-05-26T18:43:00.860Z,95789.58
2019-05-26T18:45:33.803Z,95792.02
2019-05-26T18:48:06.835Z,95790.00
2019-05-26T18:50:39.867Z,95791.94
2019-05-26T18:53:11.869Z,95797.97
2019-05-26T18:55:46.075Z,95797.21
2019-05-26T18:58:18.855Z,95806.52
2019-05-26T19:00:52.114Z,95807.91
2019-05-26T19:03:24.026Z,95807.03
2019-05-26T19:05:57.959Z,95808.77
2019-05-26T19:08:31.691Z,95807.45
2019-05-26T19:11:04.157Z,95807.91
2019-05-26T19:13:36.942Z,95816.83
2019-05-26T19:16:08.902Z,95815.52
2019-05-26T19:18:41.175Z,95818.63
2019-05-26T19:21:15.053Z,95824.32
2019-05-26T19:23:48.248Z,95817.55
2019-05-26T19:26:20.912Z,95819.64
2019-05-26T19:28:54.068Z,95821.09
2019-05-26T19:31:27.307Z,95818.49
2019-05-26T19:34:11.933Z,95818.53
2019-05-26T19:36:45.389Z,95818.34
2019-05-26T19:39:21.123Z,95817.45
2019-05-26T19:41:55.094Z,95820.53
2019-05-26T19:44:28.801Z,95820.28
2019-05-26T19:47:00.152Z,95814.26
2019-05-26T19:49:36.189Z,95823.59
2019-05-26T19:52:10.081Z,95824.28
2019-05-26T19:54:41.475Z,95825.77
2019-05-26T19:57:15.295Z,95827.64
2019-05-26T19:59:49.352Z,95826.80
2019-05-26T20:02:24.112Z,95829.58
2019-05-26T20:05:00.458Z,95828.27
2019-05-26T20:07:33.765Z,95833.77
2019-05-26T20:10:08.834Z,95833.55
2019-05-26T20:12:42.229Z,95829.63
2019-05-26T20:15:17.075Z,95832.63
2019-05-26T20:17:48.344Z,95820.19
2019-05-26T20:20:21.991Z,95826.86
2019-05-26T20:22:54.391Z,95826.50
2019-05-26T20:25:27.293Z,95825.28
2019-05-26T20:28:00.493Z,95828.03
2019-05-26T20:30:33.436Z,95827.66
2019-05-26T20:33:07.584Z,95831.16
2019-05-26T20:35:39.532Z,95829.30
2019-05-26T20:38:12.527Z,95822.35
2019-05-26T20:40:45.560Z,95825.00
2019-05-26T20:43:18.475Z,95829.56
2019-05-26T20:45:51.464Z,95830.81
2019-05-26T20:48:24.523Z,95828.93
2019-05-26T20:50:57.481Z,95829.41
2019-05-26T20:53:51.220Z,95824.27
2019-05-26T20:56:32.277Z,95830.50
2019-05-26T20:59:06.194Z,95825.98
2019-05-26T21:01:45.707Z,95828.81
2019-05-26T21:04:18.722Z,95834.77
2019-05-26T21:06:59.521Z,95828.72
2019-05-26T21:09:40.426Z,95833.58
2019-05-26T21:12:19.361Z,95833.66
2019-05-26T21:15:00.789Z,95834.70
2019-05-26T21:17:35.906Z,95845.37
2019-05-26T21:20:09.617Z,95836.97
2019-05-26T21:22:41.104Z,95836.09
2019-05-26T21:25:14.415Z,95832.43
2019-05-26T21:27:48.434Z,95835.70
2019-05-26T21:30:21.509Z,95829.04
2019-05-26T21:33:00.418Z,95836.36
2019-05-26T21:35:35.421Z,95832.06
2019-05-26T21:38:06.799Z,95826.34
2019-05-26T21:40:40.278Z,95828.95
2019-05-26T21:43:13.432Z,95832.52
2019-05-26T21:45:45.977Z,95836.12
2019-05-26T21:48:18.810Z,95839.92
2019-05-26T21:50:53.344Z,95834.33
2019-05-26T21:53:24.777Z,95826.06
2019-05-26T21:55:57.005Z,95825.52
2019-05-26T21:58:30.830Z,95825.52
2019-05-26T22:01:04.383Z,95822.98
2019-05-26T22:03:36.694Z,95823.12
2019-05-26T22:06:09.929Z,95818.64
2019-05-26T22:08:42.751Z,95812.98
2019-05-26T22:11:15.918Z,95811.05
2019-05-26T22:13:49.054Z,95819.98
2019-05-26T22:16:20.281Z,95820.51
2019-05-26T22:18:52.908Z,95818.64
2019-05-26T22:21:24.947Z,95811.09
2019-05-26T22:23:57.885Z,95808.20
2019-05-26T22:26:30.782Z,95807.38
2019-05-26T22:29:01.999Z,95798.79
2019-05-26T22:31:35.009Z,95799.26
2019-05-26T22:34:07.982Z,95791.43
2019-05-26T22:36:41.058Z,95790.26
2019-05-26T22:39:14.221Z,95791.02
2019-05-26T22:41:48.698Z,95785.18
2019-05-26T22:44:21.374Z,95779.36
2019-05-26T22:46:52.988Z,95778.11
2019-05-26T22:49:26.681Z,95776.53
2019-05-26T22:51:57.885Z,95771.94
2019-05-26T22:54:30.279Z,95774.50
2019-05-26T22:57:05.577Z,95767.34
2019-05-26T22:59:39.197Z,95768.33
2019-05-26T23:02:14.662Z,95760.72
2019-05-26T23:04:49.804Z,95760.72
2019-05-26T23:07:21.361Z,95752.72
2019-05-26T23:09:54.121Z,95754.08
2019-05-26T23:12:26.019Z,95761.08
2019-05-26T23:15:00.081Z,95756.39
2019-05-26T23:17:34.185Z,95757.03
2019-05-26T23:20:06.603Z,95761.25
2019-05-26T23:22:40.173Z,95760.16
2019-05-26T23:25:13.919Z,95758.73
2019-05-26T23:27:46.255Z,95751.31
2019-05-26T23:30:19.256Z,95749.78
2019-05-26T23:32:52.181Z,95753.69
2019-05-26T23:35:25.349Z,95749.67
2019-05-26T23:38:00.928Z,95741.39
2019-05-26T23:40:32.402Z,95742.19
2019-05-26T23:43:06.295Z,95743.77
2019-05-26T23:45:41.792Z,95740.36
2019-05-26T23:48:13.243Z,95686.28
2019-05-26T23:50:47.379Z,95741.19
2019-05-26T23:53:21.429Z,95739.11
2019-05-26T23:55:52.667Z,95736.86
2019-05-26T23:58:25.092Z,95732.66
